Time;durP1;ratioP1;P1;durP2;ratioP2;P2;SDS_P1;SDS_P2;PMS_P1;PMS_P2;Temp;Humidity;BMP_temperature;BMP_pressure;BME280_temperature;BME280_humidity;BME280_pressure;Samples;Min_cycle;Max_cycle;Signal;HPM_P1;HPM_P2
2023/07/23 00:01:53;;;;;;;12.32;8.27;;;;;;;15.19;100.00;100899.09;4974103;28;20031;-83
2023/07/23 00:04:18;;;;;;;11.70;8.07;;;;;;;15.15;100.00;100897.72;4974040;28;20037;-82
2023/07/23 00:06:43;;;;;;;14.20;8.45;;;;;;;15.13;100.00;100889.19;4973990;28;20074;-81
2023/07/23 00:09:10;;;;;;;12.82;8.65;;;;;;;15.11;100.00;100889.31;4973873;28;20093;-82
2023/07/23 00:11:35;;;;;;;14.15;9.00;;;;;;;14.94;100.00;100853.44;4973846;28;20110;-83
2023/07/23 00:14:00;;;;;;;13.15;9.82;;;;;;;14.80;100.00;100843.34;4973601;28;20105;-83
2023/07/23 00:16:26;;;;;;;13.35;9.50;;;;;;;15.09;100.00;100878.22;4973328;28;20391;-82
2023/07/23 00:18:51;;;;;;;12.43;9.15;;;;;;;15.10;100.00;100874.66;4973803;28;20467;-82
2023/07/23 00:21:16;;;;;;;12.27;9.25;;;;;;;15.02;100.00;100855.41;4973803;28;20475;-82
2023/07/23 00:23:42;;;;;;;13.18;9.13;;;;;;;15.10;100.00;100866.84;4973765;28;20394;-83
2023/07/23 00:26:07;;;;;;;13.18;9.00;;;;;;;15.10;100.00;100863.44;4973717;28;20022;-81
2023/07/23 00:28:32;;;;;;;12.27;9.48;;;;;;;15.10;100.00;100861.66;4973643;28;20490;-82
2023/07/23 00:30:58;;;;;;;12.25;9.43;;;;;;;15.12;100.00;100853.72;4973963;28;20490;-82
2023/07/23 00:33:24;;;;;;;13.05;9.02;;;;;;;15.09;100.00;100848.78;4973532;28;20019;-82
2023/07/23 00:35:49;;;;;;;13.75;9.73;;;;;;;14.95;100.00;100829.09;4973750;28;20077;-83
2023/07/23 00:38:15;;;;;;;15.13;9.15;;;;;;;15.02;100.00;100837.22;4973664;28;20109;-82
2023/07/23 00:40:40;;;;;;;16.48;9.52;;;;;;;15.06;100.00;100838.63;4973485;28;20043;-82
2023/07/23 00:43:06;;;;;;;12.98;9.65;;;;;;;14.72;100.00;100773.75;4973502;28;20494;-81
2023/07/23 00:45:39;;;;;;;11.90;9.07;;;;;;;14.18;100.00;100685.50;5008307;23;20078;-83
2023/07/23 00:48:14;;;;;;;11.85;9.10;;;;;;;14.61;100.00;100751.25;4994412;28;20037;-82
2023/07/23 00:50:48;;;;;;;12.38;8.85;;;;;;;13.92;100.00;100625.25;5012551;28;20026;-81
2023/07/23 00:53:29;;;;;;;15.07;8.90;;;;;;;14.72;100.00;100758.16;5012422;28;20030;-81
2023/07/23 00:56:06;;;;;;;13.23;9.10;;;;;;;13.89;100.00;100623.72;5012427;28;20042;-82
2023/07/23 00:58:32;;;;;;;12.68;9.40;;;;;;;15.05;100.00;100805.78;5012364;28;20022;-81
2023/07/23 01:00:58;;;;;;;14.80;9.18;;;;;;;14.88;100.00;100775.94;5012512;28;20029;-81
2023/07/23 01:03:23;;;;;;;14.07;8.98;;;;;;;15.07;100.00;100799.50;5027186;28;20037;-82
2023/07/23 01:05:50;;;;;;;12.65;8.27;;;;;;;15.05;100.00;100800.59;5012244;28;20492;-80
2023/07/23 01:08:16;;;;;;;11.18;8.48;;;;;;;15.04;100.00;100794.53;5012176;28;20030;-80
2023/07/23 01:10:42;;;;;;;11.35;7.57;;;;;;;15.02;100.00;100787.81;5012406;28;20399;-81
2023/07/23 01:13:07;;;;;;;10.82;7.57;;;;;;;15.00;100.00;100785.34;5012229;28;20038;-80
2023/07/23 01:15:33;;;;;;;11.23;7.50;;;;;;;14.89;100.00;100762.00;5012172;28;20073;-81
2023/07/23 01:18:00;;;;;;;11.27;7.38;;;;;;;14.79;100.00;100742.91;5012260;28;20061;-81
2023/07/23 01:20:26;;;;;;;11.27;7.60;;;;;;;14.87;100.00;100753.50;5012154;28;20080;-80
2023/07/23 01:22:51;;;;;;;11.63;7.60;;;;;;;14.93;100.00;100756.41;5011957;28;20038;-82
2023/07/23 01:25:16;;;;;;;10.48;6.95;;;;;;;14.83;100.00;100745.09;5012029;28;20036;-81
2023/07/23 01:27:42;;;;;;;10.90;7.20;;;;;;;15.02;100.00;100762.63;5012586;28;20047;-80
2023/07/23 01:30:10;;;;;;;12.73;7.95;;;;;;;14.75;100.00;100716.34;5014985;28;20113;-80
2023/07/23 01:32:37;;;;;;;10.73;7.30;;;;;;;14.88;100.00;100732.56;5015759;28;20033;-82
2023/07/23 01:35:14;;;;;;;11.88;7.68;;;;;;;14.98;100.00;100748.25;5015646;28;20030;-80
2023/07/23 01:37:41;;;;;;;10.88;7.30;;;;;;;14.95;100.00;100748.50;5015629;28;20018;-81
2023/07/23 01:40:07;;;;;;;12.48;7.78;;;;;;;14.91;100.00;100732.31;5015519;28;20113;-81
2023/07/23 01:42:33;;;;;;;10.60;7.70;;;;;;;14.93;100.00;100734.78;5015654;28;20025;-81
2023/07/23 01:45:03;;;;;;;12.73;7.45;;;;;;;14.74;100.00;100706.03;5015276;28;20077;-81
2023/07/23 01:47:28;;;;;;;10.98;7.75;;;;;;;14.85;100.00;100738.03;5015390;28;20037;-81
2023/07/23 01:49:54;;;;;;;10.73;7.95;;;;;;;14.69;100.00;100696.03;5015410;28;20033;-81
2023/07/23 01:52:19;;;;;;;11.77;7.88;;;;;;;14.83;100.00;100726.09;5015289;28;20393;-80
2023/07/23 01:54:47;;;;;;;13.02;7.68;;;;;;;14.84;100.00;100719.94;5015411;28;20108;-80
2023/07/23 01:57:13;;;;;;;11.15;8.35;;;;;;;14.72;100.00;100700.97;5015329;28;20026;-81
2023/07/23 01:59:39;;;;;;;12.65;8.10;;;;;;;14.67;100.00;100690.16;5015034;28;20358;-82
2023/07/23 02:02:06;;;;;;;14.27;8.15;;;;;;;14.80;100.00;100710.75;5015288;28;20022;-82
2023/07/23 02:04:32;;;;;;;9.68;7.88;;;;;;;14.60;100.00;100671.63;5015135;28;20033;-82
2023/07/23 02:06:57;;;;;;;11.02;8.13;;;;;;;14.73;100.00;100689.63;5015101;28;20032;-82
2023/07/23 02:09:22;;;;;;;12.27;8.07;;;;;;;14.64;100.00;100673.00;5015277;28;20037;-81
2023/07/23 02:11:48;;;;;;;14.23;7.70;;;;;;;14.78;100.00;100692.69;5015049;28;20022;-81
2023/07/23 02:14:13;;;;;;;10.30;7.80;;;;;;;14.55;100.00;100650.41;5015314;28;20229;-81
2023/07/23 02:16:38;;;;;;;9.98;7.93;;;;;;;14.80;100.00;100685.56;5014666;28;20444;-81
2023/07/23 02:19:04;;;;;;;11.52;8.00;;;;;;;14.81;100.00;100687.22;5014989;28;20041;-83
2023/07/23 02:21:29;;;;;;;11.75;7.70;;;;;;;14.80;100.00;100689.97;5014926;28;20494;-81
2023/07/23 02:23:54;;;;;;;11.98;7.82;;;;;;;14.77;100.00;100672.03;5014558;28;20096;-81
2023/07/23 02:26:20;;;;;;;12.88;8.05;;;;;;;14.81;100.00;100673.41;5014867;28;20114;-82
2023/07/23 02:28:45;;;;;;;10.52;8.18;;;;;;;14.58;100.00;100636.34;4997047;28;20125;-83
2023/07/23 02:31:11;;;;;;;11.60;7.97;;;;;;;14.58;100.00;100628.53;5014497;28;20101;-81
2023/07/23 02:33:36;;;;;;;12.02;8.10;;;;;;;14.79;100.00;100665.75;5014737;28;20037;-81
2023/07/23 02:36:02;;;;;;;11.10;8.38;;;;;;;14.67;100.00;100640.78;5014497;28;20021;-81
2023/07/23 02:38:28;;;;;;;13.05;7.88;;;;;;;13.59;100.00;100465.31;5036215;23;20146;-82
2023/07/23 02:41:02;;;;;;;12.93;7.85;;;;;;;13.65;100.00;100470.81;5014226;28;20113;-82
2023/07/23 02:43:27;;;;;;;12.13;7.65;;;;;;;13.64;100.00;100466.56;5014628;28;20034;-81
2023/07/23 02:45:58;;;;;;;10.00;7.70;;;;;;;13.57;100.00;100460.25;5014259;28;20390;-83
2023/07/23 02:48:29;;;;;;;13.98;7.82;;;;;;;13.82;100.00;100495.38;5013373;28;20410;-82
2023/07/23 02:50:55;;;;;;;11.43;7.47;;;;;;;14.26;100.00;100551.47;5014618;28;20402;-82
2023/07/23 02:53:20;;;;;;;11.52;7.60;;;;;;;13.72;100.00;100458.16;5014371;28;20022;-81
2023/07/23 02:55:58;;;;;;;12.00;7.88;;;;;;;13.62;100.00;100442.53;5014296;28;20037;-82
2023/07/23 02:58:26;;;;;;;11.10;7.75;;;;;;;14.40;100.00;100572.88;5014408;28;20355;-82
2023/07/23 03:00:58;;;;;;;13.02;7.80;;;;;;;13.60;100.00;100436.66;5012821;28;20041;-82
2023/07/23 03:03:41;;;;;;;9.43;7.25;;;;;;;13.98;100.00;100495.78;5014280;28;20018;-82
2023/07/23 03:06:08;;;;;;;11.00;7.35;;;;;;;14.45;100.00;100561.16;5013866;28;20033;-82
2023/07/23 03:08:33;;;;;;;11.65;7.68;;;;;;;14.84;100.00;100627.16;5013908;28;20021;-82
2023/07/23 03:10:59;;;;;;;10.00;7.10;;;;;;;14.60;100.00;100590.25;5013936;28;20026;-82
2023/07/23 03:13:24;;;;;;;12.50;7.50;;;;;;;14.87;100.00;100634.72;5013964;28;20037;-82
2023/07/23 03:15:49;;;;;;;10.32;6.85;;;;;;;14.86;100.00;100629.66;5013692;28;20466;-82
2023/07/23 03:18:15;;;;;;;10.55;6.57;;;;;;;14.88;100.00;100628.56;5013811;28;20113;-81
2023/07/23 03:20:40;;;;;;;9.45;6.22;;;;;;;14.66;100.00;100588.94;5013742;28;20026;-82
2023/07/23 03:23:05;;;;;;;8.38;5.80;;;;;;;14.71;100.00;100586.75;5013738;28;20036;-83
2023/07/23 03:25:31;;;;;;;7.57;5.30;;;;;;;15.00;100.00;100626.72;5013455;28;20026;-83
2023/07/23 03:27:59;;;;;;;7.63;5.30;;;;;;;14.78;100.00;100580.09;5014014;28;20056;-83
2023/07/23 03:30:25;;;;;;;8.80;5.07;;;;;;;14.86;100.00;100596.69;5013949;28;20105;-83
2023/07/23 03:32:52;;;;;;;8.63;5.07;;;;;;;15.07;100.00;100624.44;5013151;28;20045;-83
2023/07/23 03:35:18;;;;;;;13.43;4.88;;;;;;;15.00;99.53;100603.31;5013313;28;20041;-83
2023/07/23 03:37:43;;;;;;;8.85;4.88;;;;;;;15.05;100.00;100597.72;5013718;28;20050;-82
2023/07/23 03:40:09;;;;;;;8.52;5.00;;;;;;;15.20;98.46;100625.84;5013332;28;20129;-83
2023/07/23 03:42:34;;;;;;;11.05;5.20;;;;;;;15.03;98.11;100589.22;5013333;28;20037;-83
2023/07/23 03:44:59;;;;;;;10.35;4.88;;;;;;;15.25;97.73;100629.84;5013236;28;20034;-84
2023/07/23 03:47:26;;;;;;;8.27;4.75;;;;;;;15.14;97.34;100608.19;4995283;28;20030;-83
2023/07/23 03:49:51;;;;;;;7.82;4.72;;;;;;;15.27;97.44;100615.75;4995598;28;20021;-83
2023/07/23 03:52:17;;;;;;;7.22;4.63;;;;;;;15.28;97.89;100619.97;5012319;28;20053;-82
2023/07/23 03:54:43;;;;;;;7.78;4.50;;;;;;;15.28;96.89;100619.16;5013304;28;20053;-84
2023/07/23 03:57:08;;;;;;;7.82;4.72;;;;;;;15.09;97.86;100586.91;5013284;28;20068;-85
2023/07/23 03:59:47;;;;;;;8.88;4.57;;;;;;;15.09;98.24;100586.91;5013184;28;20029;-84
2023/07/23 04:02:13;;;;;;;10.57;4.32;;;;;;;15.14;97.31;100591.72;5013044;28;20026;-83
2023/07/23 04:04:39;;;;;;;8.80;4.65;;;;;;;15.08;95.11;100590.47;5012719;28;20112;-82
2023/07/23 04:07:06;;;;;;;10.25;4.95;;;;;;;15.31;94.84;100619.72;5013191;28;20040;-83
2023/07/23 04:09:31;;;;;;;8.32;4.38;;;;;;;15.29;95.26;100615.59;5012851;28;20022;-81
2023/07/23 04:11:57;;;;;;;8.88;4.40;;;;;;;15.21;94.93;100608.44;5013203;28;20041;-83
2023/07/23 04:14:23;;;;;;;8.20;4.57;;;;;;;15.06;95.13;100569.00;5013171;28;20460;-83
2023/07/23 04:16:48;;;;;;;8.38;4.60;;;;;;;15.39;94.49;100626.88;5013011;28;20029;-83
2023/07/23 04:19:17;;;;;;;7.32;4.57;;;;;;;15.09;95.49;100571.31;5012960;28;20033;-82
2023/07/23 04:21:43;;;;;;;7.43;4.28;;;;;;;14.89;93.66;100536.63;4995004;28;20026;-82
2023/07/23 04:24:08;;;;;;;6.90;4.50;;;;;;;15.45;92.87;100631.53;5012841;28;20080;-81
2023/07/23 04:26:33;;;;;;;6.95;4.13;;;;;;;15.47;92.91;100619.22;5012796;28;20488;-82
2023/07/23 04:29:00;;;;;;;8.75;4.43;;;;;;;15.43;92.11;100613.44;5012759;28;20021;-82
2023/07/23 04:31:25;;;;;;;7.68;4.38;;;;;;;15.40;92.93;100605.91;4995599;28;20482;-82
2023/07/23 04:33:50;;;;;;;8.15;4.35;;;;;;;15.57;94.08;100624.44;5012621;28;20064;-83
2023/07/23 04:36:16;;;;;;;6.63;4.00;;;;;;;15.59;92.30;100625.94;5012575;28;20145;-82
2023/07/23 04:38:43;;;;;;;9.55;4.68;;;;;;;15.62;91.11;100628.31;5012592;28;20520;-82
2023/07/23 04:41:27;;;;;;;9.23;4.47;;;;;;;14.81;91.73;100487.06;5005978;23;20442;-82
2023/07/23 04:43:52;;;;;;;6.97;3.72;;;;;;;14.61;90.72;100451.56;4973688;28;20098;-82
2023/07/23 04:46:31;;;;;;;6.75;4.20;;;;;;;15.02;91.42;100506.97;4973424;28;20126;-83
2023/07/23 04:48:56;;;;;;;7.18;4.38;;;;;;;15.09;91.82;100521.91;4973170;28;20038;-80
2023/07/23 04:51:37;;;;;;;8.88;3.85;;;;;;;14.89;91.03;100486.41;4973452;28;20106;-81
2023/07/23 04:54:02;;;;;;;9.25;4.35;;;;;;;14.70;90.09;100442.16;4973644;28;20022;-81
2023/07/23 04:56:27;;;;;;;6.70;3.97;;;;;;;15.74;91.18;100603.00;4973568;28;20030;-79
2023/07/23 04:58:56;;;;;;;11.98;4.63;;;;;;;15.86;90.52;100624.53;4973665;28;20023;-80
2023/07/23 05:01:21;;;;;;;8.98;4.15;;;;;;;15.77;89.76;100605.34;4973019;28;20034;-79
2023/07/23 05:03:47;;;;;;;7.25;4.05;;;;;;;15.90;90.82;100621.50;4975777;28;20026;-79
2023/07/23 05:06:12;;;;;;;7.75;4.43;;;;;;;15.89;90.90;100617.25;4977325;28;20041;-80
2023/07/23 05:08:37;;;;;;;7.45;4.22;;;;;;;15.75;90.20;100589.84;4977524;28;20030;-80
2023/07/23 05:11:04;;;;;;;7.30;4.00;;;;;;;15.98;89.32;100620.84;4977218;28;20034;-82
2023/07/23 05:13:31;;;;;;;7.82;4.18;;;;;;;15.73;89.55;100578.75;4977313;28;20089;-81
2023/07/23 05:16:02;;;;;;;5.53;3.83;;;;;;;16.01;89.59;100618.78;4977089;28;20363;-81
2023/07/23 05:18:28;;;;;;;8.25;3.63;;;;;;;15.87;89.93;100592.31;4977066;28;20027;-80
2023/07/23 05:20:53;;;;;;;7.13;3.90;;;;;;;15.84;90.35;100588.22;4976993;28;20142;-81
2023/07/23 05:23:19;;;;;;;8.77;4.45;;;;;;;16.05;90.27;100622.75;4977198;28;20038;-83
2023/07/23 05:25:44;;;;;;;7.68;4.10;;;;;;;15.82;90.15;100587.50;4977060;28;20038;-83
2023/07/23 05:28:10;;;;;;;9.60;4.15;;;;;;;16.06;92.10;100631.41;4976906;28;20027;-83
2023/07/23 05:30:36;;;;;;;9.48;4.32;;;;;;;15.90;90.47;100608.50;4959146;28;20106;-82
2023/07/23 05:33:01;;;;;;;8.85;4.00;;;;;;;15.72;90.69;100560.66;4976434;28;20023;-80
2023/07/23 05:35:27;;;;;;;7.07;4.30;;;;;;;15.98;90.47;100602.59;4976674;28;20133;-82
2023/07/23 05:37:52;;;;;;;6.65;4.20;;;;;;;16.07;90.19;100622.63;4976457;28;20031;-81
2023/07/23 05:40:17;;;;;;;7.78;3.83;;;;;;;16.09;90.36;100623.31;4976740;28;20106;-82
2023/07/23 05:42:44;;;;;;;7.70;4.85;;;;;;;15.91;89.84;100596.28;4976114;28;20391;-83
2023/07/23 05:45:10;;;;;;;7.95;4.13;;;;;;;15.85;90.89;100576.03;4976473;28;20058;-81
2023/07/23 05:47:35;;;;;;;8.73;4.28;;;;;;;15.99;90.08;100591.22;4958961;28;20058;-81
2023/07/23 05:50:01;;;;;;;7.82;4.13;;;;;;;15.92;89.07;100571.88;4976195;28;20031;-80
2023/07/23 05:52:26;;;;;;;7.13;3.88;;;;;;;16.18;90.44;100614.66;4976654;28;20030;-82
2023/07/23 05:54:51;;;;;;;6.03;3.97;;;;;;;16.10;89.73;100609.31;4976522;28;20418;-82
2023/07/23 05:57:17;;;;;;;7.57;3.92;;;;;;;16.12;90.37;100617.81;4976379;28;20051;-81
2023/07/23 05:59:42;;;;;;;9.00;4.95;;;;;;;16.10;91.99;100611.91;4976269;28;20027;-79
2023/07/23 06:02:08;;;;;;;7.20;4.38;;;;;;;16.13;90.79;100608.25;4976135;28;20042;-82
2023/07/23 06:04:33;;;;;;;9.70;4.22;;;;;;;16.05;90.33;100594.13;4958609;28;20031;-82
2023/07/23 06:06:58;;;;;;;6.07;3.80;;;;;;;16.16;89.39;100606.16;4975982;28;20110;-81
2023/07/23 06:09:25;;;;;;;7.65;4.28;;;;;;;16.19;89.06;100608.50;4975418;28;20038;-81
2023/07/23 06:11:51;;;;;;;6.70;3.88;;;;;;;16.02;89.60;100583.94;4976167;28;20026;-84
2023/07/23 06:14:16;;;;;;;9.45;4.13;;;;;;;16.25;88.78;100615.75;4975434;28;20061;-81
2023/07/23 06:16:42;;;;;;;7.45;3.88;;;;;;;16.12;90.20;100562.28;4975929;28;20048;-81
2023/07/23 06:19:07;;;;;;;8.35;4.20;;;;;;;16.30;90.56;100600.53;4975617;28;20034;-82
2023/07/23 06:21:32;;;;;;;7.45;3.63;;;;;;;16.23;89.80;100596.03;4975956;28;20023;-83
2023/07/23 06:23:58;;;;;;;10.00;4.35;;;;;;;16.14;90.27;100594.25;4975916;28;20037;-80
2023/07/23 06:26:23;;;;;;;7.85;3.97;;;;;;;16.03;91.80;100592.63;4975910;28;20034;-81
2023/07/23 06:28:49;;;;;;;6.97;3.80;;;;;;;16.09;91.87;100623.31;4958366;28;20043;-82
2023/07/23 06:31:14;;;;;;;9.05;4.10;;;;;;;15.79;93.36;100579.97;4975870;28;20027;-82
2023/07/23 06:36:46;;;;;;;7.85;4.43;;;;;;;15.67;95.62;100565.44;4976283;28;20084;-80
2023/07/23 06:39:19;;;;;;;7.30;3.88;;;;;;;15.67;95.47;100555.84;4975915;28;20049;-83
2023/07/23 06:41:53;;;;;;;7.60;3.95;;;;;;;16.17;95.72;100633.03;4977299;28;20046;-82
2023/07/23 06:44:18;;;;;;;6.18;4.00;;;;;;;16.13;94.57;100635.13;5009419;28;20034;-83
2023/07/23 06:46:43;;;;;;;8.45;4.18;;;;;;;15.42;94.65;100525.94;4995084;28;20030;-83
2023/07/23 06:49:13;;;;;;;9.25;4.78;;;;;;;16.11;95.80;100637.00;4976808;28;20035;-82
2023/07/23 06:51:39;;;;;;;9.88;4.95;;;;;;;16.20;95.11;100648.38;4994930;28;20483;-82
2023/07/23 06:54:04;;;;;;;9.15;4.53;;;;;;;16.25;95.55;100654.84;4994926;28;20046;-82
2023/07/23 06:56:29;;;;;;;7.72;4.15;;;;;;;15.99;95.28;100599.03;4994637;28;20466;-81
2023/07/23 06:58:55;;;;;;;7.40;4.30;;;;;;;16.32;96.59;100636.88;4994696;28;20037;-84
2023/07/23 07:01:22;;;;;;;9.27;4.32;;;;;;;16.28;96.22;100623.28;5009828;28;20430;-82
2023/07/23 07:03:47;;;;;;;9.35;4.20;;;;;;;16.45;96.44;100652.22;5009735;28;20054;-83
2023/07/23 07:06:16;;;;;;;8.07;4.70;;;;;;;16.28;97.26;100641.53;4994188;28;20117;-80
2023/07/23 07:08:43;;;;;;;11.35;4.90;;;;;;;16.13;99.07;100652.53;4994876;28;20030;-79
2023/07/23 07:11:09;;;;;;;13.43;4.95;;;;;;;15.99;100.00;100654.56;4992716;28;20058;-81
2023/07/23 07:13:38;;;;;;;8.10;4.82;;;;;;;15.52;100.00;100605.78;4995464;28;20042;-82
2023/07/23 07:16:04;;;;;;;9.32;5.00;;;;;;;15.30;100.00;100578.22;4961213;28;20132;-81
2023/07/23 07:18:29;;;;;;;10.02;5.18;;;;;;;15.72;100.00;100644.78;4994771;28;20058;-81
2023/07/23 07:20:59;;;;;;;9.50;5.95;;;;;;;15.51;100.00;100599.78;4994373;28;20054;-83
2023/07/23 07:23:28;;;;;;;10.32;6.00;;;;;;;15.51;100.00;100610.19;4994529;28;20046;-77
2023/07/23 07:25:55;;;;;;;8.55;5.43;;;;;;;15.57;100.00;100640.88;4993358;28;20053;-81
2023/07/23 07:28:21;;;;;;;9.75;4.95;;;;;;;14.64;100.00;100500.66;4993893;28;20568;-83
2023/07/23 07:44:04;;;;;;;9.20;5.35;;;;;;;15.62;100.00;100636.13;6118334;23;20051;-82
2023/07/23 07:46:30;;;;;;;9.90;5.50;;;;;;;15.70;100.00;100628.47;5012225;28;20129;-84
2023/07/23 07:48:55;;;;;;;8.18;5.57;;;;;;;15.92;100.00;100645.63;5028010;28;20549;-83
2023/07/23 07:51:21;;;;;;;9.98;5.53;;;;;;;16.06;100.00;100640.03;5012538;28;20026;-82
2023/07/23 07:53:46;;;;;;;8.32;5.18;;;;;;;16.05;100.00;100608.91;5012530;28;20040;-80
2023/07/23 07:56:30;;;;;;;10.02;4.85;;;;;;;16.48;100.00;100647.56;5012680;28;20084;-83
2023/07/23 07:58:56;;;;;;;8.43;5.40;;;;;;;16.42;100.00;100613.41;5012770;28;20061;-82
2023/07/23 08:01:21;;;;;;;8.70;5.60;;;;;;;16.73;100.00;100640.97;4994841;28;20077;-82
2023/07/23 08:03:50;;;;;;;10.55;5.63;;;;;;;16.78;100.00;100628.31;5012780;28;20172;-80
2023/07/23 08:06:16;;;;;;;7.55;5.20;;;;;;;17.01;100.00;100638.41;5012470;28;20505;-81
2023/07/23 08:08:43;;;;;;;9.32;5.32;;;;;;;17.05;100.00;100640.59;4995550;28;20034;-82
2023/07/23 08:11:09;;;;;;;10.90;5.22;;;;;;;17.17;99.77;100646.44;5013303;28;20045;-82
2023/07/23 08:13:36;;;;;;;9.50;5.10;;;;;;;17.13;100.00;100650.31;5012858;28;20033;-83
2023/07/23 08:16:02;;;;;;;9.30;4.97;;;;;;;16.95;100.00;100639.00;5012386;28;20104;-84
2023/07/23 08:18:27;;;;;;;8.32;4.22;;;;;;;17.11;100.00;100644.44;5012327;28;20050;-83
2023/07/23 08:20:57;;;;;;;8.48;5.20;;;;;;;17.06;100.00;100649.25;5011893;28;20022;-80
2023/07/23 08:23:23;;;;;;;9.70;5.47;;;;;;;17.01;100.00;100649.69;5012146;28;20018;-81
2023/07/23 08:25:52;;;;;;;8.85;5.55;;;;;;;16.82;100.00;100655.78;5012282;28;20037;-81
2023/07/23 08:28:22;;;;;;;8.23;4.45;;;;;;;16.87;100.00;100647.53;5012456;28;20026;-82
2023/07/23 08:30:49;;;;;;;9.05;4.82;;;;;;;16.74;100.00;100610.50;4994543;28;20433;-79
2023/07/23 08:33:17;;;;;;;7.13;4.80;;;;;;;16.75;100.00;100628.59;5012172;28;20165;-81
2023/07/23 08:35:43;;;;;;;6.88;4.63;;;;;;;16.86;100.00;100641.47;5011852;28;20108;-82
2023/07/23 08:38:08;;;;;;;7.90;4.78;;;;;;;16.85;100.00;100639.84;5011334;28;20159;-81
2023/07/23 08:40:42;;;;;;;7.80;4.40;;;;;;;16.83;100.00;100635.75;5012213;28;20034;-82
2023/07/23 08:43:24;;;;;;;6.53;3.88;;;;;;;16.86;100.00;100646.69;5012019;28;20100;-81
2023/07/23 08:46:03;;;;;;;6.47;3.90;;;;;;;16.80;100.00;100646.44;5224870;23;1084880;-82
2023/07/23 08:48:47;;;;;;;5.95;3.60;;;;;;;16.44;100.00;100590.66;4971201;28;20051;-82
2023/07/23 08:51:13;;;;;;;7.45;3.45;;;;;;;16.79;100.00;100644.78;5004731;28;20156;-83
2023/07/23 08:53:41;;;;;;;6.00;3.72;;;;;;;16.69;100.00;100629.16;4973694;28;20019;-83
2023/07/23 08:56:07;;;;;;;6.63;3.78;;;;;;;16.59;100.00;100618.72;4973453;28;20037;-83
2023/07/23 08:58:32;;;;;;;7.70;3.33;;;;;;;16.80;100.00;100647.25;5004717;28;20023;-79
2023/07/23 09:00:59;;;;;;;5.85;3.67;;;;;;;16.67;100.00;100610.22;4973528;28;20034;-78
2023/07/23 09:03:26;;;;;;;5.68;3.40;;;;;;;16.74;100.00;100619.16;4973770;28;20066;-83
2023/07/23 09:05:54;;;;;;;5.45;3.10;;;;;;;16.90;100.00;100624.56;4973370;28;20031;-82
2023/07/23 09:08:20;;;;;;;5.32;2.90;;;;;;;16.69;100.00;100584.84;4973639;28;20113;-81
2023/07/23 09:10:45;;;;;;;6.18;3.08;;;;;;;17.09;100.00;100639.34;4972433;28;20111;-83
2023/07/23 09:13:14;;;;;;;5.90;2.90;;;;;;;17.23;100.00;100642.47;4973661;28;20118;-83
2023/07/23 09:15:40;;;;;;;6.10;2.75;;;;;;;16.97;100.00;100621.41;4973322;28;20078;-81
2023/07/23 09:18:08;;;;;;;5.75;3.22;;;;;;;17.16;100.00;100642.19;4973704;28;20035;-84
2023/07/23 09:20:34;;;;;;;4.22;2.60;;;;;;;17.02;100.00;100629.63;4973681;28;20027;-84
2023/07/23 09:23:07;;;;;;;4.68;2.70;;;;;;;17.18;100.00;100651.53;4973366;28;20521;-83
2023/07/23 09:25:32;;;;;;;6.43;3.10;;;;;;;17.20;100.00;100651.38;4973527;28;20062;-83
2023/07/23 09:27:57;;;;;;;5.35;2.90;;;;;;;17.18;100.00;100617.59;4973378;28;20053;-83
2023/07/23 09:30:25;;;;;;;5.40;2.50;;;;;;;17.24;100.00;100638.88;4973193;28;20039;-79
2023/07/23 09:32:58;;;;;;;4.50;2.55;;;;;;;17.14;100.00;100625.88;4973319;28;20031;-83
2023/07/23 09:35:25;;;;;;;3.90;2.50;;;;;;;16.90;100.00;100605.50;4973208;28;20034;-83
2023/07/23 09:37:57;;;;;;;4.65;2.67;;;;;;;17.10;100.00;100655.81;4973327;28;20023;-82
2023/07/23 09:40:33;;;;;;;4.57;2.65;;;;;;;16.96;100.00;100630.19;4973226;28;20368;-83
2023/07/23 09:42:59;;;;;;;5.55;2.45;;;;;;;16.61;100.00;100571.66;4973149;28;20081;-83
2023/07/23 09:45:24;;;;;;;5.45;2.80;;;;;;;16.92;100.00;100640.94;4973314;28;20034;-81
2023/07/23 09:47:53;;;;;;;5.45;2.80;;;;;;;16.73;100.00;100632.34;4971938;28;20042;-82
2023/07/23 09:52:50;;;;;;;5.25;2.63;;;;;;;16.63;100.00;100611.47;5022725;23;20117;-82
2023/07/23 09:55:17;;;;;;;4.00;2.40;;;;;;;16.85;100.00;100650.28;5015524;28;20109;-79
2023/07/23 09:57:46;;;;;;;4.65;2.92;;;;;;;16.57;100.00;100614.63;5015418;28;20037;-82
2023/07/23 10:00:12;;;;;;;3.83;2.53;;;;;;;16.74;100.00;100645.22;5015527;28;20029;-82
2023/07/23 10:02:39;;;;;;;4.85;3.13;;;;;;;16.80;100.00;100651.66;5015560;28;20076;-82
2023/07/23 10:05:12;;;;;;;5.25;3.30;;;;;;;16.35;100.00;100600.94;5015316;28;20068;-82
2023/07/23 10:07:39;;;;;;;5.47;2.85;;;;;;;16.56;100.00;100644.25;5015440;28;20033;-82
2023/07/23 10:10:08;;;;;;;6.90;3.25;;;;;;;16.59;100.00;100663.03;5015188;28;20057;-81
2023/07/23 10:12:33;;;;;;;5.28;3.20;;;;;;;16.57;100.00;100664.16;5015210;28;20381;-81
2023/07/23 10:15:02;;;;;;;3.92;2.42;;;;;;;16.36;100.00;100622.59;5015410;28;20030;-81
2023/07/23 10:17:28;;;;;;;5.35;3.10;;;;;;;16.30;100.00;100620.53;5014414;28;20092;-80
2023/07/23 10:19:56;;;;;;;7.57;2.92;;;;;;;16.19;100.00;100618.91;5035478;28;20025;-78
2023/07/23 10:22:23;;;;;;;5.65;3.20;;;;;;;16.31;100.00;100636.03;5035544;28;20021;-79
2023/07/23 10:24:54;;;;;;;5.15;2.97;;;;;;;16.40;100.00;100637.00;5034732;28;20048;-79
2023/07/23 10:27:19;;;;;;;4.80;2.90;;;;;;;16.34;100.00;100635.78;5034800;28;20087;-80
2023/07/23 10:30:14;;;;;;;4.20;2.72;;;;;;;16.54;100.00;100667.88;5035013;28;20025;-80
2023/07/23 10:32:39;;;;;;;4.93;3.20;;;;;;;16.55;100.00;100664.28;4935451;29;20118;-79
2023/07/23 10:35:45;;;;;;;4.72;2.70;;;;;;;16.55;100.00;100677.34;4935426;29;20609;-79
2023/07/23 10:38:33;;;;;;;4.93;2.88;;;;;;;16.60;100.00;100677.72;4928409;29;20044;-80
2023/07/23 10:40:59;;;;;;;4.85;2.90;;;;;;;16.61;100.00;100674.16;4935250;29;20055;-80
2023/07/23 10:43:37;;;;;;;5.18;2.80;;;;;;;16.48;100.00;100646.72;4935163;29;20119;-80
2023/07/23 10:46:08;;;;;;;5.50;3.03;;;;;;;16.59;100.00;100677.88;4935022;29;20035;-79
2023/07/23 10:48:59;;;;;;;;;;;;;;;16.64;100.00;100673.06;4935429;29;20039;-79
2023/07/23 10:51:25;;;;;;;5.78;3.15;;;;;;;16.68;100.00;100669.25;4932518;29;19931;-80
2023/07/23 10:53:54;;;;;;;4.28;3.05;;;;;;;16.89;100.00;100672.47;4934957;29;20083;-80
2023/07/23 10:56:30;;;;;;;5.25;3.47;;;;;;;17.01;100.00;100674.94;4918600;29;20042;-79
2023/07/23 10:59:03;;;;;;;5.38;3.30;;;;;;;17.09;100.00;100675.03;4934808;29;20032;-80
2023/07/23 11:01:28;;;;;;;5.93;3.38;;;;;;;17.13;100.00;100658.16;4934644;29;20067;-80
2023/07/23 11:03:56;;;;;;;4.80;3.30;;;;;;;17.25;100.00;100672.66;4934817;29;20487;-79
2023/07/23 11:06:32;;;;;;;5.35;3.20;;;;;;;17.18;100.00;100651.53;4919059;29;20035;-79
2023/07/23 11:09:14;;;;;;;5.57;2.95;;;;;;;17.39;100.00;100669.56;4949578;28;20041;-79
2023/07/23 11:12:18;;;;;;;6.68;3.53;;;;;;;17.51;100.00;100672.84;4993064;28;20044;-79
2023/07/23 11:14:55;;;;;;;6.38;4.13;;;;;;;16.80;100.00;100487.34;4934465;29;20032;-80
2023/07/23 11:17:20;;;;;;;5.85;3.75;;;;;;;17.48;100.00;100546.00;4934635;29;20144;-79
2023/07/23 11:19:47;;;;;;;6.63;4.03;;;;;;;18.31;100.00;100621.56;4934631;29;20177;-80
2023/07/23 11:22:15;;;;;;;5.70;3.80;;;;;;;18.98;100.00;100663.75;4934517;29;20472;-80
2023/07/23 11:24:40;;;;;;;6.22;3.92;;;;;;;19.55;100.00;100653.50;4918389;29;20094;-80
2023/07/23 11:27:06;;;;;;;5.82;3.50;;;;;;;19.76;98.70;100664.38;4918507;29;20119;-80
2023/07/23 11:29:34;;;;;;;7.93;3.67;;;;;;;19.90;97.59;100663.78;4934330;29;20484;-81
2023/07/23 11:32:01;;;;;;;7.18;3.75;;;;;;;20.05;96.41;100664.78;4934402;29;20067;-80
2023/07/23 11:34:27;;;;;;;5.90;3.47;;;;;;;20.29;95.69;100669.22;4934264;29;20043;-79
2023/07/23 11:36:54;;;;;;;5.35;3.83;;;;;;;20.41;92.18;100671.53;4934374;29;20160;-79
2023/07/23 11:39:23;;;;;;;7.40;3.83;;;;;;;20.47;95.34;100652.56;4934073;29;20064;-80